Time;durP1;ratioP1;P1;durP2;ratioP2;P2;SDS_P1;SDS_P2;PMS_P1;PMS_P2;Temp;Humidity;BMP_temperature;BMP_pressure;BME280_temperature;BME280_humidity;BME280_pressure;Samples;Min_cycle;Max_cycle;Signal;HPM_P1;HPM_P2
2021/01/27 00:01:28;;;;;;;2.83;2.33;;;;;;;1.26;100.00;99216.90;1824595;78;21218;-73
2021/01/27 00:03:57;;;;;;;1.50;1.40;;;;;;;1.25;100.00;99213.87;1824634;78;21554;-75
2021/01/27 00:06:25;;;;;;;2.43;1.77;;;;;;;1.25;100.00;99215.20;1824654;78;20973;-75
2021/01/27 00:08:53;;;;;;;2.30;2.03;;;;;;;1.25;100.00;99201.88;1824675;77;21558;-75
2021/01/27 00:11:21;;;;;;;2.53;2.23;;;;;;;1.25;100.00;99200.05;1824769;78;20974;-75
2021/01/27 00:13:50;;;;;;;4.03;2.27;;;;;;;1.26;100.00;99197.76;1824663;77;21662;-74
2021/01/27 00:16:18;;;;;;;2.57;1.60;;;;;;;1.26;100.00;99191.59;1824690;78;21543;-75
2021/01/27 00:18:46;;;;;;;3.43;1.73;;;;;;;1.23;100.00;99182.03;1824551;78;20994;-73
2021/01/27 00:21:14;;;;;;;2.27;2.07;;;;;;;1.23;100.00;99186.03;1824572;78;20998;-74
2021/01/27 00:23:42;;;;;;;1.70;1.60;;;;;;;1.22;100.00;99184.36;1824714;78;20982;-75
2021/01/27 00:26:10;;;;;;;1.60;1.27;;;;;;;1.23;100.00;99186.03;1821186;78;21258;-74
2021/01/27 00:28:38;;;;;;;3.13;2.03;;;;;;;1.25;100.00;99180.08;1814460;78;21035;-75
2021/01/27 00:31:06;;;;;;;2.63;1.53;;;;;;;1.25;100.00;99178.75;1814324;78;20954;-74
2021/01/27 00:33:34;;;;;;;2.83;2.10;;;;;;;1.24;100.00;99181.08;1812774;79;21564;-74
2021/01/27 00:36:02;;;;;;;1.90;1.80;;;;;;;1.25;100.00;99180.08;1746442;82;21001;-75
2021/01/27 00:38:30;;;;;;;0.83;0.83;;;;;;;1.25;100.00;99175.25;1768976;81;21873;-75
2021/01/27 00:40:58;;;;;;;2.23;1.70;;;;;;;1.25;100.00;99176.09;1746373;82;21871;-74
2021/01/27 00:43:26;;;;;;;2.10;1.93;;;;;;;1.26;100.00;99174.28;1768990;81;20949;-73
2021/01/27 00:45:54;;;;;;;2.10;1.40;;;;;;;1.23;100.00;99170.05;1746371;82;21575;-74
2021/01/27 00:48:23;;;;;;;7.57;1.47;;;;;;;1.20;100.00;99163.66;1769042;81;21128;-75
2021/01/27 00:50:51;;;;;;;3.67;1.67;;;;;;;1.18;100.00;99162.95;1768966;81;21186;-74
2021/01/27 00:53:20;;;;;;;1.90;1.73;;;;;;;1.20;100.00;99172.14;1746268;82;21085;-75
2021/01/27 00:55:48;;;;;;;1.47;1.37;;;;;;;1.19;100.00;99166.44;1769031;81;20946;-76
2021/01/27 00:58:17;;;;;;;7.53;4.00;;;;;;;1.19;100.00;99166.44;1746359;82;21006;-74
2021/01/27 01:00:47;;;;;;;33.50;13.00;;;;;;;1.19;100.00;99172.63;1769000;81;21554;-75
2021/01/27 01:03:24;;;;;;;26.80;11.90;;;;;;;1.19;100.00;99183.28;1756895;81;21209;-75
2021/01/27 01:05:52;;;;;;;11.00;4.30;;;;;;;1.19;100.00;99171.30;1787958;80;21535;-75
2021/01/27 01:08:20;;;;;;;7.23;3.60;;;;;;;1.17;100.00;99153.29;1787910;79;21013;-75
2021/01/27 01:10:52;;;;;;;9.20;3.57;;;;;;;1.18;100.00;99154.13;1787907;80;20950;-76
2021/01/27 01:13:23;;;;;;;2.60;2.40;;;;;;;1.17;100.00;99149.76;1762829;81;21586;-75
2021/01/27 01:15:51;;;;;;;2.63;2.20;;;;;;;1.19;100.00;99146.00;1787946;80;21392;-75
2021/01/27 01:18:19;;;;;;;4.40;2.27;;;;;;;1.20;100.00;99151.66;1787825;80;21077;-75
2021/01/27 01:20:49;;;;;;;3.10;2.30;;;;;;;1.19;100.00;99146.00;1788011;79;21496;-75
2021/01/27 01:23:19;;;;;;;2.80;1.93;;;;;;;1.17;100.00;99137.78;1787933;80;21535;-74
2021/01/27 01:25:47;;;;;;;2.20;2.03;;;;;;;1.16;100.00;99129.45;1783329;80;20982;-74
2021/01/27 01:28:16;;;;;;;13.37;4.87;;;;;;;1.15;100.00;99131.25;1760890;81;21809;-75
2021/01/27 01:30:45;;;;;;;14.63;7.07;;;;;;;1.13;100.00;99140.73;1761750;80;21542;-73
2021/01/27 01:33:18;;;;;;;7.33;3.53;;;;;;;1.14;100.00;99129.58;1787992;80;21029;-75
2021/01/27 01:35:46;;;;;;;1.98;1.52;;;;;;;1.13;100.00;99117.23;1763487;80;21651;-74
2021/01/27 01:38:15;;;;;;;2.40;1.73;;;;;;;1.13;100.00;99107.91;1789655;80;20910;-75
2021/01/27 01:40:50;;;;;;;2.53;1.93;;;;;;;1.13;100.00;99107.44;1789623;80;22106;-76
2021/01/27 01:43:26;;;;;;;3.63;1.67;;;;;;;1.14;100.00;99113.11;1758237;81;20984;-74
2021/01/27 01:46:16;;;;;;;1.50;1.40;;;;;;;1.16;100.00;99108.15;1758490;81;20985;-74
2021/01/27 01:48:51;;;;;;;2.43;2.07;;;;;;;1.14;100.00;99104.28;1758563;81;20953;-74
2021/01/27 01:51:55;;;;;;;1.17;1.07;;;;;;;1.13;100.00;99103.45;1758720;81;21533;-75
2021/01/27 01:54:30;;;;;;;1.62;1.47;;;;;;;1.11;100.00;99098.72;1758713;81;21158;-74
2021/01/27 01:57:01;;;;;;;1.50;1.20;;;;;;;1.09;100.00;99091.36;1720272;83;20952;-74
2021/01/27 01:59:31;;;;;;;2.17;1.00;;;;;;;1.06;100.00;99092.98;1720403;83;20956;-75
2021/01/27 02:02:02;;;;;;;1.60;1.20;;;;;;;1.03;100.00;99090.58;1720325;83;21088;-75
2021/01/27 02:04:35;;;;;;;1.13;1.03;;;;;;;1.01;100.00;99077.89;1723339;83;20991;-75
2021/01/27 02:07:10;;;;;;;1.20;1.20;;;;;;;1.01;100.00;99063.25;1889996;76;26985;-74
2021/01/27 02:09:38;;;;;;;1.10;1.10;;;;;;;0.95;100.00;99077.08;1860873;77;21551;-74
2021/01/27 02:12:24;;;;;;;1.60;1.37;;;;;;;0.94;100.00;99077.58;1860810;77;21358;-77
2021/01/27 02:15:35;;;;;;;1.60;1.37;;;;;;;0.93;100.00;99068.39;1860907;77;21057;-75
2021/01/27 02:18:32;;;;;;;0.47;0.47;;;;;;;0.93;100.00;99061.73;1860892;77;20943;-75
2021/01/27 02:21:48;;;;;;;1.37;1.27;;;;;;;0.93;100.00;99050.59;1856131;77;21013;-74
2021/01/27 02:24:42;;;;;;;2.03;1.57;;;;;;;0.92;100.00;99050.25;1860971;77;20959;-76
2021/01/27 02:27:31;;;;;;;1.73;1.37;;;;;;;0.91;100.00;99042.40;1806615;79;21152;-75
2021/01/27 02:30:43;;;;;;;0.90;0.90;;;;;;;0.88;100.00;99046.65;1811588;79;21761;-76
2021/01/27 02:33:20;;;;;;;1.73;1.63;;;;;;;0.87;100.00;99056.47;1760927;81;20993;-75
2021/01/27 02:36:14;;;;;;;2.97;1.47;;;;;;;0.86;100.00;99056.59;1761081;81;20969;-74
2021/01/27 02:38:56;;;;;;;2.17;1.50;;;;;;;0.87;100.00;99047.64;1761252;81;21708;-75
2021/01/27 02:41:42;;;;;;;1.13;1.07;;;;;;;0.86;100.00;99049.94;1761091;80;22148;-75
2021/01/27 02:44:14;;;;;;;0.63;0.63;;;;;;;0.86;100.00;99070.73;1760989;81;21024;-75
2021/01/27 02:46:52;;;;;;;1.57;1.47;;;;;;;0.86;100.00;99067.23;1761181;81;21075;-74
2021/01/27 02:49:47;;;;;;;1.10;1.00;;;;;;;0.90;100.00;99061.53;1889988;76;26660;-75
2021/01/27 02:52:21;;;;;;;2.30;1.93;;;;;;;0.87;100.00;99049.81;1860892;77;21033;-77
2021/01/27 02:54:59;;;;;;;9.10;3.37;;;;;;;0.87;100.00;99044.48;1860890;77;21187;-76
2021/01/27 02:57:32;;;;;;;2.93;1.57;;;;;;;0.87;100.00;99059.62;1826578;78;20955;-74
2021/01/27 03:00:11;;;;;;;3.43;2.47;;;;;;;0.88;100.00;99042.66;1826874;78;21045;-75
2021/01/27 03:02:52;;;;;;;3.97;2.43;;;;;;;0.90;100.00;99039.37;1826515;78;21732;-74
2021/01/27 03:05:25;;;;;;;3.50;2.30;;;;;;;0.89;100.00;99045.69;1826332;78;20942;-74
2021/01/27 03:08:03;;;;;;;0.83;0.83;;;;;;;0.92;100.00;99044.06;1845335;76;26684;-75
2021/01/27 03:10:49;;;;;;;1.17;1.13;;;;;;;0.87;100.00;99030.34;1815174;79;20988;-75
2021/01/27 03:13:17;;;;;;;11.33;4.87;;;;;;;0.87;100.00;99026.35;1811144;79;21649;-75
2021/01/27 03:15:45;;;;;;;3.57;3.03;;;;;;;0.87;100.00;99017.87;1815220;79;21023;-74
2021/01/27 03:18:18;;;;;;;4.83;2.97;;;;;;;0.89;100.00;99003.10;1815356;78;21511;-77
2021/01/27 03:20:47;;;;;;;1.60;1.50;;;;;;;0.89;100.00;99000.44;1811348;79;21554;-75
2021/01/27 03:23:35;;;;;;;1.50;1.23;;;;;;;0.89;100.00;98996.45;1815239;79;20993;-74
2021/01/27 03:26:18;;;;;;;3.03;2.13;;;;;;;0.88;100.00;98986.77;1815165;78;21819;-74
2021/01/27 03:28:58;;;;;;;3.77;2.60;;;;;;;0.87;100.00;98999.23;1728128;83;21031;-74
2021/01/27 03:31:26;;;;;;;6.57;3.20;;;;;;;0.87;100.00;98989.92;1717592;83;21038;-74
2021/01/27 03:34:13;;;;;;;16.37;9.40;;;;;;;0.88;100.00;99002.23;1674400;84;21050;-74
2021/01/27 03:36:55;;;;;;;33.10;14.47;;;;;;;0.89;100.00;99001.27;1697328;84;21027;-74
2021/01/27 03:39:35;;;;;;;28.33;12.60;;;;;;;0.94;100.00;98997.72;1895078;75;26980;-75
2021/01/27 03:42:08;;;;;;;16.80;8.07;;;;;;;0.91;100.00;99001.97;1804219;79;21522;-75
2021/01/27 03:44:41;;;;;;;14.97;6.17;;;;;;;0.90;100.00;99000.77;1829088;78;21368;-74
2021/01/27 03:47:18;;;;;;;;;;;;;;;0.88;100.00;99002.73;1804507;79;20961;-75
2021/01/27 03:50:13;;;;;;;12.90;5.60;;;;;;;0.88;100.00;99002.73;1829144;78;20132;-74
2021/01/27 03:52:57;;;;;;;5.83;2.83;;;;;;;0.87;100.00;99000.57;1731042;80;21628;-75
2021/01/27 03:55:56;;;;;;;1.67;1.27;;;;;;;0.91;100.00;98986.50;1889973;76;26712;-74
2021/01/27 03:58:39;;;;;;;1.43;1.33;;;;;;;0.86;100.00;98981.58;1860985;77;21018;-76
2021/01/27 04:01:14;;;;;;;0.85;0.85;;;;;;;0.87;100.00;98981.94;1777493;80;21579;-74
2021/01/27 04:03:43;;;;;;;2.07;1.93;;;;;;;0.86;100.00;98976.75;1777646;80;20985;-74
2021/01/27 04:06:11;;;;;;;1.67;1.57;;;;;;;0.87;100.00;98977.11;1777592;80;20987;-73
2021/01/27 04:08:39;;;;;;;3.27;2.23;;;;;;;0.90;100.00;98970.16;1777628;80;21012;-74
2021/01/27 04:11:07;;;;;;;3.03;2.73;;;;;;;0.91;100.00;98979.35;1777651;80;21001;-73
2021/01/27 04:13:36;;;;;;;24.37;10.70;;;;;;;0.90;100.00;98983.47;1777579;80;22219;-74
2021/01/27 04:16:05;;;;;;;9.47;5.00;;;;;;;0.92;100.00;98960.22;1777644;80;20961;-73
2021/01/27 04:18:33;;;;;;;11.10;4.10;;;;;;;0.92;100.00;98956.23;1777611;80;20998;-76
2021/01/27 04:21:01;;;;;;;1.53;1.43;;;;;;;0.92;100.00;98957.55;1777626;80;21001;-74
2021/01/27 04:23:29;;;;;;;9.90;4.93;;;;;;;0.91;100.00;98958.05;1777739;80;21607;-74
2021/01/27 04:25:57;;;;;;;11.13;4.00;;;;;;;0.92;100.00;98949.58;1782840;79;21839;-74
2021/01/27 04:28:25;;;;;;;12.33;5.23;;;;;;;0.92;100.00;98946.91;1799243;79;21031;-75
2021/01/27 04:30:54;;;;;;;16.53;6.40;;;;;;;0.91;100.00;98949.23;1796813;79;21059;-75
2021/01/27 04:33:22;;;;;;;30.97;12.63;;;;;;;0.93;100.00;98945.95;1777613;80;20980;-75
2021/01/27 04:35:51;;;;;;;20.13;7.87;;;;;;;0.94;100.00;98945.81;1777804;80;20938;-74
2021/01/27 04:38:18;;;;;;;6.20;3.37;;;;;;;0.95;100.00;98938.66;1800317;78;21647;-75
2021/01/27 04:40:52;;;;;;;7.40;3.70;;;;;;;0.94;100.00;98952.47;1826974;78;20940;-74
2021/01/27 04:43:25;;;;;;;7.63;3.73;;;;;;;0.94;100.00;98946.31;1823469;78;21470;-75
2021/01/27 04:46:21;;;;;;;12.53;5.47;;;;;;;0.96;100.00;98955.00;1746384;81;20957;-75
2021/01/27 04:49:12;;;;;;;32.70;12.23;;;;;;;1.02;100.00;98946.95;1889931;76;26661;-75
2021/01/27 04:52:03;;;;;;;28.83;10.80;;;;;;;0.98;100.00;98939.73;1860987;77;21506;-75
2021/01/27 04:55:00;;;;;;;12.03;5.37;;;;;;;0.97;100.00;98939.86;1860986;77;21188;-75
2021/01/27 04:58:08;;;;;;;8.07;3.57;;;;;;;0.98;100.00;98941.06;1860853;77;21006;-75
2021/01/27 05:01:01;;;;;;;9.17;5.17;;;;;;;0.98;100.00;98935.73;1860901;77;20939;-74
2021/01/27 05:03:52;;;;;;;21.00;7.15;;;;;;;1.01;100.00;98945.25;1861014;77;21015;-74
2021/01/27 05:06:24;;;;;;;43.27;17.53;;;;;;;1.02;100.00;98938.46;1860925;77;21029;-74
2021/01/27 05:09:10;;;;;;;20.50;10.80;;;;;;;1.03;100.00;98926.02;1777952;80;26785;-74
2021/01/27 05:11:45;;;;;;;13.87;7.23;;;;;;;1.04;100.00;98923.69;1890007;76;26881;-74
2021/01/27 05:14:15;;;;;;;11.97;5.37;;;;;;;1.04;100.00;98943.66;1861021;77;21555;-74
2021/01/27 05:16:43;;;;;;;15.07;6.30;;;;;;;1.07;100.00;98940.73;1860851;77;21418;-75
2021/01/27 05:19:11;;;;;;;23.33;11.20;;;;;;;1.09;100.00;98944.09;1801337;77;21019;-76
2021/01/27 05:21:51;;;;;;;31.83;12.50;;;;;;;1.06;100.00;98929.72;1861035;77;20998;-74
2021/01/27 05:24:19;;;;;;;13.90;5.30;;;;;;;1.06;100.00;98920.39;1860846;77;21045;-76
2021/01/27 05:27:10;;;;;;;13.93;6.13;;;;;;;1.06;100.00;98909.28;1860961;77;20915;-75
2021/01/27 05:30:04;;;;;;;7.53;4.37;;;;;;;1.07;100.00;98901.63;1859483;77;21201;-74
2021/01/27 05:32:55;;;;;;;8.37;4.53;;;;;;;1.08;100.00;98903.32;1861342;76;20935;-73
2021/01/27 05:35:32;;;;;;;5.13;3.50;;;;;;;1.09;100.00;98900.16;1863707;77;20923;-76
2021/01/27 05:38:31;;;;;;;7.83;4.60;;;;;;;1.11;100.00;98894.20;1847498;76;26681;-75
2021/01/27 05:41:07;;;;;;;50.27;29.17;;;;;;;1.08;100.00;98896.66;1760348;79;21099;-75
2021/01/27 05:43:42;;;;;;;87.07;37.63;;;;;;;1.12;100.00;98890.57;1892402;76;26700;-74
2021/01/27 05:46:17;;;;;;;46.47;20.23;;;;;;;1.11;100.00;98887.05;1862866;77;20880;-74
2021/01/27 05:48:49;;;;;;;31.60;15.73;;;;;;;1.14;100.00;98880.62;1793257;80;21372;-74
2021/01/27 05:51:28;;;;;;;17.63;7.97;;;;;;;1.16;100.00;98878.66;1793630;80;20980;-75
2021/01/27 05:53:56;;;;;;;21.83;11.03;;;;;;;1.18;100.00;98872.69;1794847;80;21008;-75
2021/01/27 05:56:28;;;;;;;50.80;22.93;;;;;;;1.20;100.00;98877.38;1794542;80;21423;-77
2021/01/27 05:59:08;;;;;;;54.50;24.00;;;;;;;1.23;100.00;98874.45;1847627;76;26602;-73
2021/01/27 06:01:42;;;;;;;;;;;;;;;1.20;100.00;98878.72;1731991;83;21028;-75
2021/01/27 06:04:19;;;;;;;45.27;20.23;;;;;;;1.24;100.00;98876.61;1729458;80;22493;-74
2021/01/27 06:06:54;;;;;;;15.33;7.33;;;;;;;1.25;100.00;98884.97;1730379;83;21007;-75
2021/01/27 06:09:43;;;;;;;10.27;4.27;;;;;;;1.26;100.00;98878.17;1729092;83;21625;-70
2021/01/27 06:12:22;;;;;;;9.87;4.93;;;;;;;1.24;100.00;98869.48;1742089;81;20969;-70
2021/01/27 06:15:11;;;;;;;17.83;8.23;;;;;;;1.26;100.00;98868.02;1824140;76;26783;-71
2021/01/27 06:17:47;;;;;;;18.53;9.70;;;;;;;1.27;100.00;98877.67;1783567;80;20980;-71
2021/01/27 06:20:30;;;;;;;10.07;4.97;;;;;;;1.30;100.00;98875.56;1748573;80;20992;-71
2021/01/27 06:23:31;;;;;;;11.30;5.03;;;;;;;1.34;100.00;98877.45;1748445;80;20948;-70
2021/01/27 06:26:25;;;;;;;7.20;4.40;;;;;;;1.36;100.00;98876.82;1743855;82;21870;-70
2021/01/27 06:29:08;;;;;;;90.90;35.43;;;;;;;1.35;100.00;98872.49;1733067;82;21058;-70
2021/01/27 06:32:26;;;;;;;41.97;17.47;;;;;;;1.38;100.00;98878.02;1739943;81;20941;-74
2021/01/27 06:35:17;;;;;;;33.07;16.07;;;;;;;1.41;100.00;98869.75;1733261;82;21442;-74
2021/01/27 06:38:09;;;;;;;13.27;6.57;;;;;;;1.45;100.00;98868.01;1731322;82;21028;-74
2021/01/27 06:41:11;;;;;;;9.23;4.33;;;;;;;1.49;100.00;98859.24;1730711;82;21063;-73
2021/01/27 06:44:18;;;;;;;17.77;6.47;;;;;;;1.59;100.00;98863.20;1890003;76;26602;-72
2021/01/27 06:46:52;;;;;;;24.10;10.20;;;;;;;1.60;100.00;98863.57;1839042;77;20929;-73
2021/01/27 06:49:41;;;;;;;22.63;9.93;;;;;;;1.64;100.00;98852.97;1823957;78;22053;-73
2021/01/27 06:52:58;;;;;;;9.80;5.67;;;;;;;1.71;100.00;98844.75;1709903;83;21041;-74
2021/01/27 06:55:49;;;;;;;10.03;5.57;;;;;;;1.75;100.00;98835.97;1744087;81;20981;-73
2021/01/27 06:59:04;;;;;;;11.37;5.90;;;;;;;1.82;100.00;98833.91;1740766;82;20926;-73
2021/01/27 07:02:08;;;;;;;24.87;11.87;;;;;;;1.84;100.00;98842.63;1724952;82;21045;-74
2021/01/27 07:05:16;;;;;;;30.27;13.70;;;;;;;1.88;100.00;98842.67;1744280;82;21832;-75
2021/01/27 07:08:22;;;;;;;32.33;12.43;;;;;;;1.92;100.00;98845.89;1725661;82;21033;-74
2021/01/27 07:11:19;;;;;;;19.50;9.97;;;;;;;2.00;100.00;98854.48;1724639;83;21024;-72
2021/01/27 07:14:07;;;;;;;17.33;9.53;;;;;;;2.12;100.00;98853.31;1851765;76;27096;-74
2021/01/27 07:17:14;;;;;;;17.73;8.27;;;;;;;2.16;100.00;98860.53;1833143;77;20934;-74
2021/01/27 07:20:17;;;;;;;20.40;9.60;;;;;;;2.22;100.00;98856.79;1740355;82;22380;-74
2021/01/27 07:23:17;;;;;;;22.50;9.23;;;;;;;2.30;100.00;98856.05;1710097;83;21472;-73
2021/01/27 07:26:25;;;;;;;20.37;8.70;;;;;;;2.39;100.00;98844.98;1685033;85;21025;-73
2021/01/27 07:29:20;;;;;;;13.70;6.83;;;;;;;2.43;100.00;98835.22;1680632;84;21000;-71
2021/01/27 07:31:54;;;;;;;10.07;5.20;;;;;;;2.50;100.00;98830.60;1703925;82;21204;-70
2021/01/27 07:34:45;;;;;;;10.63;5.80;;;;;;;2.54;100.00;98830.17;1714511;83;21367;-69
2021/01/27 07:37:17;;;;;;;13.47;6.63;;;;;;;2.58;100.00;98824.03;1710449;83;21141;-70
2021/01/27 07:40:07;;;;;;;27.87;11.93;;;;;;;2.66;100.00;98814.29;1856977;75;26965;-71
2021/01/27 07:43:16;;;;;;;52.33;20.82;;;;;;;2.69;100.00;98815.80;1828067;77;20998;-70
2021/01/27 07:45:51;;;;;;;53.20;20.63;;;;;;;2.74;100.00;98810.02;1831927;77;21648;-72
2021/01/27 07:48:34;;;;;;;30.53;13.97;;;;;;;2.73;100.00;98809.70;1757770;80;21067;-71
2021/01/27 07:51:16;;;;;;;34.00;15.77;;;;;;;2.72;100.00;98799.49;1775917;80;20941;-75
2021/01/27 07:54:22;;;;;;;44.70;18.63;;;;;;;2.78;100.00;98797.57;1852360;76;27107;-73
2021/01/27 07:57:00;;;;;;;25.67;10.93;;;;;;;2.77;100.00;98800.39;1751721;79;21463;-73
2021/01/27 07:59:37;;;;;;;18.87;8.63;;;;;;;2.82;100.00;98799.44;1801695;79;21197;-73
2021/01/27 08:02:24;;;;;;;14.27;6.70;;;;;;;2.87;100.00;98805.64;1784469;79;21048;-74
2021/01/27 08:05:02;;;;;;;17.90;7.50;;;;;;;2.90;100.00;98800.84;1768853;81;21086;-71
2021/01/27 08:07:39;;;;;;;19.53;8.30;;;;;;;2.92;100.00;98808.22;1769366;81;21004;-73
2021/01/27 08:10:13;;;;;;;15.47;5.47;;;;;;;2.98;100.00;98802.77;1769631;81;21055;-71
2021/01/27 08:12:55;;;;;;;10.50;5.87;;;;;;;3.05;100.00;98807.84;1770874;78;21187;-73
2021/01/27 08:15:32;;;;;;;17.10;7.27;;;;;;;3.10;100.00;98809.55;1747113;82;21693;-72
2021/01/27 08:18:17;;;;;;;28.27;10.83;;;;;;;3.15;100.00;98811.74;1765437;78;21744;-75
2021/01/27 08:20:47;;;;;;;31.47;11.90;;;;;;;3.20;100.00;98798.77;1797148;78;21063;-75
2021/01/27 08:23:38;;;;;;;20.77;8.17;;;;;;;3.23;100.00;98810.48;1819929;78;21080;-76
2021/01/27 08:26:08;;;;;;;13.10;6.13;;;;;;;3.28;100.00;98811.37;1809721;78;21868;-78
2021/01/27 08:28:44;;;;;;;13.43;6.17;;;;;;;3.35;100.00;98809.25;1749294;81;21005;-73
2021/01/27 08:31:18;;;;;;;11.83;5.60;;;;;;;3.42;100.00;98808.14;1829573;76;21032;-71
2021/01/27 08:36:35;;;;;;;13.70;6.83;;;;;;;3.59;100.00;98813.95;1843633;76;27274;-75
2021/01/27 08:39:12;;;;;;;20.47;7.33;;;;;;;3.65;100.00;98807.14;1797810;78;21024;-73
2021/01/27 08:41:57;;;;;;;17.13;6.80;;;;;;;3.74;100.00;98820.89;1773090;79;21375;-75
2021/01/27 08:44:38;;;;;;;14.90;6.30;;;;;;;3.78;100.00;98819.57;1755305;80;21025;-73
2021/01/27 08:47:27;;;;;;;12.47;5.10;;;;;;;3.82;100.00;98822.77;1771571;79;21223;-74
2021/01/27 08:50:11;;;;;;;11.30;4.70;;;;;;;3.89;100.00;98820.31;1870738;76;26657;-82
2021/01/27 08:52:43;;;;;;;5.80;4.23;;;;;;;3.91;100.00;98820.98;1745090;80;21121;-69
2021/01/27 08:55:45;;;;;;;7.53;4.45;;;;;;;3.98;100.00;98831.39;1712156;82;21156;-71
2021/01/27 08:58:37;;;;;;;10.27;4.00;;;;;;;4.12;100.00;98821.43;1878321;76;27381;-73
2021/01/27 09:01:26;;;;;;;7.97;4.80;;;;;;;4.17;100.00;98824.98;1796039;79;21038;-72
2021/01/27 09:03:59;;;;;;;11.63;5.73;;;;;;;4.22;100.00;98818.65;1697880;83;21223;-73
2021/01/27 09:06:44;;;;;;;5.63;4.00;;;;;;;4.25;100.00;98821.48;1731111;79;21030;-72
2021/01/27 09:09:22;;;;;;;6.57;4.10;;;;;;;4.27;100.00;98824.36;1709475;82;21025;-74
2021/01/27 09:12:08;;;;;;;8.43;4.13;;;;;;;4.28;100.00;98809.97;1720153;82;21037;-74
2021/01/27 09:14:42;;;;;;;7.23;3.50;;;;;;;4.31;100.00;98803.47;1757845;80;21523;-73
2021/01/27 09:33:42;;;;;;;7.90;4.50;;;;;;;4.38;100.00;98779.08;1697560;80;20989;-80
2021/01/27 09:36:23;;;;;;;9.00;4.80;;;;;;;4.41;100.00;98761.36;1729413;81;21195;-83
2021/01/27 09:38:54;;;;;;;14.90;6.23;;;;;;;4.42;100.00;98760.34;1713554;83;21468;-82
2021/01/27 09:44:06;;;;;;;12.40;6.03;;;;;;;4.48;100.00;98746.32;1890772;76;26668;-80
2021/01/27 09:46:39;;;;;;;7.50;4.15;;;;;;;4.47;100.00;98741.95;1827256;77;21429;-81
2021/01/27 09:49:12;;;;;;;10.67;4.83;;;;;;;4.51;100.00;98743.80;1853682;77;21324;-80
2021/01/27 09:51:49;;;;;;;9.37;4.50;;;;;;;4.52;100.00;98737.46;1822562;78;21230;-82
2021/01/27 09:54:18;;;;;;;8.93;4.30;;;;;;;4.53;100.00;98742.66;1823767;78;21558;-80
2021/01/27 09:56:55;;;;;;;7.57;4.53;;;;;;;4.58;100.00;98743.99;1827318;78;21045;-76
2021/01/27 09:59:23;;;;;;;7.53;4.37;;;;;;;4.61;100.00;98739.66;1832558;77;21467;-77
2021/01/27 10:01:51;;;;;;;7.07;4.00;;;;;;;4.63;100.00;98745.17;1870640;76;21210;-83
2021/01/27 10:04:36;;;;;;;6.63;3.90;;;;;;;4.68;100.00;98743.34;1779123;80;20990;-83
2021/01/27 10:07:18;;;;;;;7.90;4.22;;;;;;;4.73;100.00;98730.30;1790567;80;20951;-83
2021/01/27 10:10:10;;;;;;;7.03;3.50;;;;;;;4.81;100.00;98732.97;1807371;78;21002;-80
2021/01/27 10:12:38;;;;;;;9.10;3.90;;;;;;;4.87;100.00;98735.00;1794976;78;21067;-82
2021/01/27 10:15:31;;;;;;;11.33;5.47;;;;;;;4.95;100.00;98739.52;1788206;79;21192;-83
2021/01/27 10:18:21;;;;;;;15.43;5.42;;;;;;;5.01;100.00;98737.52;1783950;80;21155;-84
2021/01/27 10:20:50;;;;;;;25.57;10.93;;;;;;;5.07;100.00;98731.48;1783313;80;21029;-83
2021/01/27 10:23:43;;;;;;;11.47;6.10;;;;;;;5.12;100.00;98723.77;1783175;80;21048;-83
2021/01/27 10:26:32;;;;;;;10.30;5.13;;;;;;;5.23;100.00;98719.91;1842627;76;27252;-84
2021/01/27 10:29:23;;;;;;;15.53;5.00;;;;;;;5.22;100.00;98726.27;1788592;79;21431;-80
2021/01/27 10:31:54;;;;;;;11.73;5.40;;;;;;;5.24;100.00;98731.46;1769835;79;21194;-78
2021/01/27 10:34:43;;;;;;;6.43;3.70;;;;;;;5.27;100.00;98721.75;1784900;80;21100;-78
2021/01/27 10:37:32;;;;;;;7.83;3.87;;;;;;;5.28;100.00;98716.22;1784636;80;21069;-81
2021/01/27 10:40:33;;;;;;;7.57;4.63;;;;;;;5.33;100.00;98725.11;1790907;80;21744;-80
2021/01/27 10:43:17;;;;;;;9.47;4.30;;;;;;;5.39;100.00;98715.55;1822651;78;26720;-80
2021/01/27 10:45:45;;;;;;;11.07;5.00;;;;;;;5.41;100.00;98719.72;1797259;79;20929;-81
2021/01/27 10:48:25;;;;;;;10.47;4.83;;;;;;;5.46;100.00;98709.83;1789925;79;21418;-80
2021/01/27 10:51:06;;;;;;;8.63;4.33;;;;;;;5.48;100.00;98707.81;1796838;79;21526;-79
2021/01/27 10:53:37;;;;;;;10.50;4.83;;;;;;;5.52;100.00;98714.50;1797190;79;21005;-79
2021/01/27 10:56:05;;;;;;;5.93;3.37;;;;;;;5.54;100.00;98711.65;1730350;82;21112;-79
2021/01/27 10:58:34;;;;;;;7.77;3.63;;;;;;;5.56;100.00;98706.47;1730737;82;21604;-79
2021/01/27 11:01:02;;;;;;;11.67;4.60;;;;;;;5.58;100.00;98708.95;1731817;82;21420;-81
2021/01/27 11:03:30;;;;;;;10.77;4.70;;;;;;;5.59;100.00;98702.59;1732537;82;21092;-80
2021/01/27 11:05:58;;;;;;;6.73;4.07;;;;;;;5.58;100.00;98703.58;1730939;83;21080;-78
2021/01/27 11:08:36;;;;;;;8.70;4.93;;;;;;;5.60;100.00;98692.20;1846110;76;26879;-79
2021/01/27 11:11:05;;;;;;;11.77;5.33;;;;;;;5.55;100.00;98690.03;1817233;77;21378;-81
2021/01/27 11:13:35;;;;;;;7.63;3.87;;;;;;;5.54;100.00;98687.00;1817401;78;22178;-81
2021/01/27 11:16:06;;;;;;;9.30;4.47;;;;;;;5.54;100.00;98690.20;1817459;78;20893;-81
2021/01/27 11:18:37;;;;;;;9.77;4.47;;;;;;;5.53;100.00;98686.69;1816970;77;20980;-79
2021/01/27 11:21:07;;;;;;;13.23;4.53;;;;;;;5.53;100.00;98679.98;1816545;79;20984;-78
2021/01/27 11:23:35;;;;;;;9.33;4.63;;;;;;;5.51;100.00;98677.47;1816205;79;20972;-79
2021/01/27 11:26:03;;;;;;;12.70;5.03;;;;;;;5.52;100.00;98672.94;1815644;77;21633;-80
2021/01/27 11:28:32;;;;;;;8.57;4.17;;;;;;;5.56;100.00;98662.70;1816044;79;20984;-81
2021/01/27 11:31:02;;;;;;;11.23;4.17;;;;;;;5.58;100.00;98669.58;1768584;77;21138;-79
2021/01/27 11:33:30;;;;;;;11.60;4.47;;;;;;;5.61;100.00;98660.34;1806110;77;21001;-77
2021/01/27 11:35:59;;;;;;;8.70;4.63;;;;;;;5.65;100.00;98657.67;1783728;80;21057;-79
2021/01/27 11:38:26;;;;;;;10.90;4.50;;;;;;;5.70;100.00;98663.32;1794254;79;21136;-77
2021/01/27 11:40:54;;;;;;;8.73;4.33;;;;;;;5.73;100.00;98658.95;1793070;79;20997;-80
2021/01/27 11:43:23;;;;;;;9.10;5.27;;;;;;;5.76;100.00;98663.98;1783318;79;21025;-79
2021/01/27 11:45:50;;;;;;;9.43;4.90;;;;;;;5.78;100.00;98661.13;1783442;80;20985;-79
2021/01/27 11:48:21;;;;;;;6.60;4.40;;;;;;;5.78;100.00;98650.41;1779201;80;20993;-83
2021/01/27 11:50:52;;;;;;;7.63;4.00;;;;;;;5.80;100.00;98649.72;1795405;79;21368;-77
2021/01/27 11:53:20;;;;;;;8.47;4.40;;;;;;;5.81;100.00;98651.41;1783608;79;21048;-81
2021/01/27 11:55:49;;;;;;;7.03;4.13;;;;;;;5.80;100.00;98639.81;1783418;79;21004;-81
2021/01/27 11:58:17;;;;;;;8.07;4.30;;;;;;;5.79;100.00;98633.28;1803527;79;21015;-82
2021/01/27 12:00:46;;;;;;;8.73;4.43;;;;;;;5.81;100.00;98635.31;1783801;79;20996;-80
2021/01/27 12:03:15;;;;;;;6.40;3.50;;;;;;;5.82;100.00;98620.35;1750038;79;21568;-79
2021/01/27 12:05:44;;;;;;;11.73;5.43;;;;;;;5.85;100.00;98618.67;1797553;79;20974;-80
2021/01/27 12:08:14;;;;;;;8.23;4.43;;;;;;;5.88;100.00;98618.33;1803570;78;21554;-80
2021/01/27 12:10:47;;;;;;;11.80;4.87;;;;;;;5.94;100.00;98623.48;1799519;79;21020;-79
2021/01/27 12:13:15;;;;;;;10.43;4.53;;;;;;;5.97;100.00;98620.49;1811764;79;20913;-81
2021/01/27 12:15:43;;;;;;;6.83;4.10;;;;;;;6.03;100.00;98616.27;1805781;79;21204;-79
2021/01/27 12:18:13;;;;;;;9.60;4.37;;;;;;;6.10;100.00;98608.34;1798244;79;21003;-81
2021/01/27 12:20:43;;;;;;;9.73;4.77;;;;;;;6.14;100.00;98606.97;1783567;79;21059;-77
2021/01/27 12:23:11;;;;;;;7.00;3.50;;;;;;;6.15;100.00;98593.89;1790133;79;21000;-76
2021/01/27 12:25:40;;;;;;;10.43;4.47;;;;;;;6.16;100.00;98587.49;1804135;79;21653;-78
2021/01/27 12:28:08;;;;;;;8.43;4.13;;;;;;;6.16;100.00;98578.95;1794059;79;21113;-79
2021/01/27 12:30:36;;;;;;;8.67;4.33;;;;;;;6.15;100.00;98583.98;1808022;79;20940;-80
2021/01/27 12:33:05;;;;;;;11.60;5.57;;;;;;;6.12;100.00;98583.50;1811545;78;21043;-80
2021/01/27 12:35:33;;;;;;;13.67;5.33;;;;;;;6.08;100.00;98589.73;1797637;79;20965;-78
2021/01/27 12:38:02;;;;;;;11.93;5.13;;;;;;;6.04;100.00;98589.77;1789329;79;21560;-78
2021/01/27 12:40:30;;;;;;;14.23;6.13;;;;;;;6.03;100.00;98584.06;1804574;79;21142;-78
2021/01/27 12:42:58;;;;;;;11.23;5.50;;;;;;;6.04;100.00;98591.94;1809545;77;21036;-77